createdAt,value
2019-06-20T00:00:50.768Z,4.47
2019-06-20T00:03:20.628Z,4.33
2019-06-20T00:05:50.352Z,4.43
2019-06-20T00:08:19.697Z,4.67
2019-06-20T00:10:49.063Z,4.10
2019-06-20T00:13:19.009Z,4.87
2019-06-20T00:15:48.325Z,4.73
2019-06-20T00:18:17.887Z,4.57
2019-06-20T00:20:51.942Z,4.20
2019-06-20T00:23:25.669Z,4.27
2019-06-20T00:25:59.404Z,4.70
2019-06-20T00:28:34.474Z,4.80
2019-06-20T00:31:08.273Z,4.07
2019-06-20T00:33:41.402Z,4.90
2019-06-20T00:36:13.919Z,4.43
2019-06-20T00:39:00.613Z,4.40
2019-06-20T00:41:38.591Z,4.03
2019-06-20T00:44:13.914Z,4.43
2019-06-20T00:46:47.828Z,4.17
2019-06-20T00:49:21.411Z,4.27
2019-06-20T00:51:55.077Z,3.93
2019-06-20T00:54:50.330Z,4.30
2019-06-20T00:57:22.591Z,4.23
2019-06-20T00:59:55.685Z,4.53
2019-06-20T01:02:28.888Z,5.00
2019-06-20T01:05:01.813Z,4.50
2019-06-20T01:07:36.681Z,4.00
2019-06-20T01:10:12.046Z,4.00
2019-06-20T01:12:48.350Z,4.03
2019-06-20T01:15:24.125Z,4.07
2019-06-20T01:17:57.251Z,3.77
2019-06-20T01:20:37.932Z,4.00
2019-06-20T01:23:15.390Z,4.10
2019-06-20T01:25:51.059Z,3.50
2019-06-20T01:28:44.017Z,4.07
2019-06-20T01:31:18.790Z,4.43
2019-06-20T01:33:55.507Z,3.80
2019-06-20T01:39:49.677Z,3.70
2019-06-20T01:42:23.913Z,3.87
2019-06-20T01:45:00.906Z,3.93
2019-06-20T01:47:36.214Z,3.90
2019-06-20T01:50:08.253Z,3.90
2019-06-20T01:52:54.400Z,4.03
2019-06-20T01:55:28.205Z,4.53
2019-06-20T01:58:03.998Z,3.50
2019-06-20T02:00:51.852Z,4.10
2019-06-20T02:03:27.567Z,3.87
2019-06-20T02:06:01.832Z,4.30
2019-06-20T02:08:36.558Z,4.23
2019-06-20T02:11:12.494Z,4.23
2019-06-20T02:13:43.542Z,4.10
2019-06-20T02:16:17.326Z,4.47
2019-06-20T02:18:51.069Z,4.17
2019-06-20T02:21:25.433Z,4.10
2019-06-20T02:24:06.362Z,3.80
2019-06-20T02:26:35.706Z,3.80
2019-06-20T02:32:34.161Z,3.87
2019-06-20T02:35:03.605Z,4.20
2019-06-20T02:37:33.306Z,3.97
2019-06-20T02:40:02.679Z,3.90
2019-06-20T02:42:32.067Z,3.83
2019-06-20T02:45:01.498Z,3.80
2019-06-20T02:47:30.942Z,4.35
2019-06-20T02:50:00.372Z,4.13
2019-06-20T02:52:30.093Z,4.60
2019-06-20T02:54:59.490Z,4.07
2019-06-20T02:57:28.884Z,3.90
2019-06-20T02:59:58.243Z,3.70
2019-06-20T03:02:27.645Z,4.17
2019-06-20T03:04:57.123Z,3.90
2019-06-20T03:07:26.566Z,4.10
2019-06-20T03:09:56.338Z,3.57
2019-06-20T03:12:25.821Z,3.97
2019-06-20T03:14:55.619Z,3.83
2019-06-20T03:17:25.650Z,3.67
2019-06-20T03:19:55.066Z,3.43
2019-06-20T03:22:24.428Z,4.27
2019-06-20T03:24:55.118Z,3.83
2019-06-20T03:27:24.437Z,4.50
2019-06-20T03:29:54.385Z,4.17
2019-06-20T03:32:23.800Z,3.97
2019-06-20T03:34:53.192Z,4.47
2019-06-20T03:37:22.543Z,5.40
2019-06-20T03:39:52.391Z,5.10
2019-06-20T03:42:22.316Z,5.10
2019-06-20T03:45:01.685Z,5.37
2019-06-20T03:47:22.889Z,5.33
2019-06-20T03:49:52.212Z,5.30
2019-06-20T03:52:21.548Z,5.03
2019-06-20T03:54:51.562Z,5.23
2019-06-20T03:57:21.025Z,5.57
2019-06-20T03:59:50.406Z,5.47
2019-06-20T04:02:19.816Z,5.03
2019-06-20T04:04:50.578Z,5.10
2019-06-20T04:07:19.983Z,5.33
2019-06-20T04:09:49.356Z,4.60
2019-06-20T04:12:19.482Z,5.20
2019-06-20T04:14:49.349Z,4.70
2019-06-20T04:17:19.169Z,4.60
2019-06-20T04:19:48.465Z,4.90
2019-06-20T04:22:17.912Z,5.00
2019-06-20T04:24:47.573Z,4.80
2019-06-20T04:27:17.006Z,4.43
2019-06-20T04:29:46.744Z,4.13
2019-06-20T04:32:17.244Z,4.53
2019-06-20T04:34:46.685Z,4.30
2019-06-20T04:37:16.155Z,4.43
2019-06-20T04:39:45.513Z,4.20
2019-06-20T04:42:18.616Z,4.47
2019-06-20T04:44:47.328Z,4.20
2019-06-20T04:47:19.008Z,3.73
2019-06-20T04:49:48.373Z,4.27
2019-06-20T04:52:17.915Z,4.70
2019-06-20T04:54:47.809Z,4.60
2019-06-20T04:57:17.376Z,5.20
2019-06-20T04:59:48.414Z,5.33
2019-06-20T05:02:19.809Z,4.60
2019-06-20T05:04:49.532Z,4.73
2019-06-20T05:07:21.107Z,6.17
2019-06-20T05:09:50.525Z,5.10
2019-06-20T05:12:20.459Z,5.07
2019-06-20T05:14:50.898Z,5.40
2019-06-20T05:17:30.981Z,5.80
2019-06-20T05:20:03.173Z,5.73
2019-06-20T05:26:02.548Z,5.47
2019-06-20T05:28:45.380Z,5.37
2019-06-20T05:34:21.356Z,5.00
2019-06-20T05:36:50.825Z,4.67
2019-06-20T05:39:20.738Z,4.67
2019-06-20T05:41:50.420Z,4.57
2019-06-20T05:44:22.745Z,4.30
2019-06-20T05:47:08.533Z,3.93
2019-06-20T05:49:24.952Z,4.20
2019-06-20T05:51:54.865Z,3.87
2019-06-20T05:54:27.073Z,3.67
2019-06-20T05:56:56.978Z,3.30
2019-06-20T05:59:48.653Z,3.90
2019-06-20T06:02:18.839Z,3.40
2019-06-20T06:04:50.853Z,2.97
2019-06-20T06:11:03.440Z,3.23
2019-06-20T06:13:44.712Z,3.10
2019-06-20T06:16:26.198Z,3.10
2019-06-20T06:18:58.363Z,2.97
2019-06-20T06:21:28.280Z,3.37
2019-06-20T06:24:00.516Z,3.13
2019-06-20T06:26:29.912Z,3.23
2019-06-20T06:28:59.194Z,2.87
2019-06-20T06:31:28.436Z,3.60
2019-06-20T06:33:57.685Z,3.50
2019-06-20T06:36:27.251Z,3.43
2019-06-20T06:38:56.569Z,3.50
2019-06-20T06:41:25.774Z,3.20
2019-06-20T06:43:55.331Z,3.50
2019-06-20T06:46:24.594Z,3.00
2019-06-20T06:48:53.860Z,2.90
2019-06-20T06:51:23.157Z,3.10
2019-06-20T06:53:52.861Z,3.30
2019-06-20T06:56:22.148Z,3.23
2019-06-20T06:58:51.436Z,3.57
2019-06-20T07:01:20.769Z,3.60
2019-06-20T07:03:50.046Z,3.80
2019-06-20T07:06:19.361Z,3.00
2019-06-20T07:08:48.721Z,3.40
2019-06-20T07:11:17.974Z,4.20
2019-06-20T07:13:47.210Z,4.20
2019-06-20T07:16:16.495Z,4.50
2019-06-20T07:18:45.694Z,4.27
2019-06-20T07:21:14.956Z,4.40
2019-06-20T07:23:44.265Z,4.70
2019-06-20T07:26:13.561Z,5.27
2019-06-20T07:28:42.777Z,4.97
2019-06-20T07:31:12.051Z,5.30
2019-06-20T07:33:41.291Z,4.40
2019-06-20T07:36:10.574Z,4.37
2019-06-20T07:38:39.788Z,4.40
2019-06-20T07:41:09.740Z,4.67
2019-06-20T07:43:39.026Z,4.67
2019-06-20T07:46:08.305Z,4.40
2019-06-20T07:48:37.566Z,4.57
2019-06-20T07:51:06.815Z,4.03
2019-06-20T07:53:36.048Z,4.03
2019-06-20T07:56:05.265Z,4.17
2019-06-20T07:58:34.555Z,3.90
2019-06-20T08:01:04.889Z,3.50
2019-06-20T08:03:37.738Z,3.33
2019-06-20T08:06:07.103Z,3.10
2019-06-20T08:44:37.718Z,2.90
2019-06-20T08:47:06.937Z,2.70
2019-06-20T08:49:36.237Z,3.00
2019-06-20T08:52:05.965Z,2.80
2019-06-20T08:54:35.271Z,2.87
2019-06-20T08:57:06.918Z,3.07
2019-06-20T08:59:36.298Z,2.70
2019-06-20T09:04:35.451Z,2.90
2019-06-20T09:09:34.861Z,2.77
2019-06-20T09:12:05.107Z,2.77
2019-06-20T09:14:34.906Z,2.90
2019-06-20T09:17:04.429Z,2.93
2019-06-20T09:19:36.591Z,2.80
2019-06-20T09:22:06.093Z,2.83
2019-06-20T09:24:35.517Z,2.70
2019-06-20T09:27:04.996Z,2.70
2019-06-20T09:29:42.056Z,2.83
2019-06-20T09:32:12.792Z,2.57
2019-06-20T09:34:42.329Z,2.77
2019-06-20T09:37:15.976Z,2.80
2019-06-20T09:39:47.134Z,2.70
2019-06-20T09:42:16.962Z,2.80
2019-06-20T09:44:58.736Z,2.77
2019-06-20T09:47:28.185Z,2.80
2019-06-20T09:49:59.042Z,2.53
2019-06-20T09:52:28.917Z,3.00
2019-06-20T09:55:00.574Z,2.90
2019-06-20T09:57:29.995Z,2.90
2019-06-20T10:00:09.676Z,3.00
2019-06-20T10:02:30.890Z,2.97
2019-06-20T10:05:00.279Z,2.90
2019-06-20T10:07:30.049Z,2.90
2019-06-20T10:10:01.676Z,2.97
2019-06-20T10:12:31.100Z,3.40
2019-06-20T10:15:00.936Z,3.10
2019-06-20T10:17:30.254Z,2.57
2019-06-20T10:20:00.870Z,3.23
2019-06-20T10:22:30.278Z,2.70
2019-06-20T10:28:28.663Z,2.63
2019-06-20T10:30:58.507Z,2.40
2019-06-20T10:33:27.903Z,2.67
2019-06-20T10:35:57.689Z,2.40
2019-06-20T10:38:27.467Z,2.57
2019-06-20T10:40:59.894Z,3.23
2019-06-20T10:43:27.701Z,2.90
2019-06-20T10:45:57.274Z,2.70
2019-06-20T10:48:26.576Z,2.60
2019-06-20T10:50:57.765Z,2.80
2019-06-20T10:53:27.055Z,2.60
2019-06-20T10:55:56.328Z,2.60
2019-06-20T10:58:25.660Z,2.60
2019-06-20T11:00:55.203Z,2.83
2019-06-20T11:03:24.412Z,2.73
2019-06-20T11:05:53.647Z,2.60
2019-06-20T11:08:23.153Z,2.80
2019-06-20T11:10:52.454Z,2.90
2019-06-20T11:13:21.688Z,3.00
2019-06-20T11:15:50.957Z,2.83
2019-06-20T11:18:20.204Z,3.10
2019-06-20T11:20:49.471Z,2.87
2019-06-20T11:23:18.703Z,2.83
2019-06-20T11:25:48.392Z,3.30
2019-06-20T11:28:17.708Z,2.90
2019-06-20T11:30:58.136Z,3.03
2019-06-20T11:33:17.959Z,2.77
2019-06-20T11:35:48.002Z,2.90
2019-06-20T11:38:17.262Z,3.10
2019-06-20T11:40:48.119Z,3.20
2019-06-20T11:43:17.453Z,2.57
2019-06-20T11:45:47.228Z,2.67
2019-06-20T11:48:16.516Z,3.13
2019-06-20T11:50:46.640Z,2.97
2019-06-20T11:53:16.158Z,3.20
2019-06-20T11:55:45.420Z,2.60
2019-06-20T11:58:14.726Z,3.30
2019-06-20T12:00:44.074Z,3.00
2019-06-20T12:03:13.370Z,3.40
2019-06-20T12:05:43.259Z,3.13
2019-06-20T12:08:12.883Z,3.67
2019-06-20T12:10:43.147Z,3.10
2019-06-20T12:13:12.456Z,3.30
2019-06-20T12:15:42.800Z,3.40
2019-06-20T12:18:12.259Z,3.47
2019-06-20T12:20:42.843Z,3.53
2019-06-20T12:23:12.362Z,3.57
2019-06-20T12:25:42.663Z,3.60
2019-06-20T12:28:12.431Z,3.80
2019-06-20T12:30:43.483Z,3.90
2019-06-20T12:33:12.857Z,3.90
2019-06-20T12:35:42.779Z,4.00
2019-06-20T12:38:15.060Z,3.80
2019-06-20T12:40:44.097Z,3.77
2019-06-20T12:43:13.857Z,5.43
2019-06-20T12:45:43.151Z,5.17
2019-06-20T12:48:12.426Z,2.60
2019-06-20T12:50:42.983Z,5.37
2019-06-20T12:53:12.525Z,7.00
2019-06-20T12:55:42.455Z,8.40
2019-06-20T12:58:11.907Z,8.93
2019-06-20T13:00:42.998Z,8.83
2019-06-20T13:03:12.275Z,10.17
2019-06-20T13:05:43.269Z,9.37
2019-06-20T13:08:13.727Z,9.40
2019-06-20T13:10:44.161Z,9.70
2019-06-20T13:13:13.511Z,9.57
2019-06-20T13:15:42.761Z,8.83
2019-06-20T13:18:14.389Z,8.57
2019-06-20T13:20:44.227Z,10.17
2019-06-20T13:23:13.893Z,10.40
2019-06-20T13:25:44.464Z,10.13
2019-06-20T13:28:14.262Z,11.30
2019-06-20T13:30:47.386Z,11.17
2019-06-20T13:33:15.052Z,12.63
2019-06-20T13:35:45.374Z,11.80
2019-06-20T13:38:14.779Z,11.93
2019-06-20T13:40:45.394Z,12.47
2019-06-20T13:43:14.965Z,12.70
2019-06-20T13:45:44.840Z,13.13
2019-06-20T13:48:15.287Z,14.40
2019-06-20T13:50:45.344Z,13.40
2019-06-20T13:53:14.723Z,15.20
2019-06-20T13:55:45.738Z,14.70
2019-06-20T13:58:23.496Z,14.87
2019-06-20T14:00:57.313Z,14.70
2019-06-20T14:03:33.187Z,14.17
2019-06-20T14:06:15.132Z,14.80
2019-06-20T14:08:50.312Z,16.00
2019-06-20T14:11:21.354Z,15.30
2019-06-20T14:13:54.457Z,17.43
2019-06-20T14:16:28.563Z,15.80
2019-06-20T14:19:08.434Z,16.03
2019-06-20T14:21:42.523Z,14.87
2019-06-20T14:24:20.240Z,16.13
2019-06-20T14:26:56.118Z,14.93
2019-06-20T14:29:32.767Z,17.60
2019-06-20T14:32:18.795Z,19.93
2019-06-20T14:34:43.661Z,18.43
2019-06-20T14:37:19.713Z,19.57
2019-06-20T14:39:51.052Z,17.90
2019-06-20T14:42:26.701Z,16.97
2019-06-20T14:45:00.692Z,16.80
2019-06-20T14:47:31.671Z,16.60
2019-06-20T14:50:04.111Z,15.33
2019-06-20T14:52:39.613Z,12.27
2019-06-20T14:55:15.199Z,10.47
2019-06-20T14:57:48.564Z,9.93
2019-06-20T15:00:25.421Z,9.87
2019-06-20T15:02:58.660Z,8.57
2019-06-20T15:05:34.727Z,8.57
2019-06-20T15:08:07.613Z,9.47
2019-06-20T15:11:04.087Z,8.20
2019-06-20T15:13:35.846Z,9.77
2019-06-20T15:16:06.426Z,9.50
2019-06-20T15:18:41.200Z,9.17
2019-06-20T15:21:12.963Z,8.47
2019-06-20T15:23:43.289Z,9.63
2019-06-20T15:26:17.342Z,10.50
2019-06-20T15:28:55.133Z,9.53
2019-06-20T15:31:35.716Z,8.47
2019-06-20T15:34:08.713Z,8.30
2019-06-20T15:36:42.020Z,8.47
2019-06-20T15:39:18.619Z,8.53
2019-06-20T15:41:50.060Z,8.90
2019-06-20T15:44:23.623Z,8.50
2019-06-20T15:46:53.359Z,8.40
2019-06-20T15:49:28.762Z,8.50
2019-06-20T15:51:59.811Z,7.93
2019-06-20T15:54:33.404Z,7.47
2019-06-20T15:57:06.586Z,7.13
2019-06-20T15:59:42.103Z,7.77
2019-06-20T16:02:14.294Z,6.77
2019-06-20T16:04:46.587Z,7.37
2019-06-20T16:07:17.616Z,7.17
2019-06-20T16:09:50.268Z,7.17
2019-06-20T16:12:22.642Z,7.10
2019-06-20T16:14:55.458Z,7.30
2019-06-20T16:17:28.088Z,6.53
2019-06-20T16:20:05.762Z,6.60
2019-06-20T16:22:37.421Z,7.03
2019-06-20T16:25:09.462Z,7.20
2019-06-20T16:27:42.009Z,7.73
2019-06-20T16:30:22.698Z,6.80
2019-06-20T16:32:55.367Z,6.90
2019-06-20T16:35:28.299Z,7.10
2019-06-20T16:38:00.651Z,6.57
2019-06-20T16:40:44.181Z,7.50
2019-06-20T16:43:16.335Z,6.90
2019-06-20T16:45:46.783Z,7.37
2019-06-20T16:48:21.653Z,7.63
2019-06-20T16:51:08.171Z,7.83
2019-06-20T16:53:52.617Z,7.50
2019-06-20T16:59:46.679Z,7.23
2019-06-20T17:02:30.895Z,7.23
2019-06-20T17:05:04.568Z,6.67
2019-06-20T17:13:25.383Z,6.40
2019-06-20T17:15:54.822Z,6.30
2019-06-20T17:18:25.793Z,6.10
2019-06-20T17:20:56.678Z,6.57
2019-06-20T17:31:23.591Z,5.20
2019-06-20T17:40:02.829Z,5.80
2019-06-20T17:42:38.418Z,6.10
2019-06-20T17:45:10.096Z,6.17
2019-06-20T17:47:40.846Z,5.50
2019-06-20T17:50:11.005Z,6.57
2019-06-20T17:52:51.781Z,5.97
2019-06-20T17:55:22.489Z,6.10
2019-06-20T17:57:55.912Z,6.00
2019-06-20T18:00:26.572Z,6.20
2019-06-20T18:05:37.248Z,6.37
2019-06-20T18:08:15.098Z,6.07
2019-06-20T18:22:14.433Z,9.20
2019-06-20T18:24:44.304Z,9.80
2019-06-20T18:27:14.446Z,7.97
2019-06-20T18:29:47.991Z,7.13
2019-06-20T18:32:17.523Z,6.43
2019-06-20T18:35:05.289Z,5.90
2019-06-20T18:37:33.603Z,6.63
2019-06-20T18:40:03.075Z,6.57
2019-06-20T19:52:06.325Z,8.37
2019-06-20T19:54:36.130Z,8.10
2019-06-20T20:00:46.305Z,7.70
2019-06-20T20:03:15.955Z,8.90
2019-06-20T20:05:45.676Z,8.73
2019-06-20T20:08:20.170Z,10.07
2019-06-20T20:16:12.698Z,9.77
2019-06-20T20:21:12.231Z,9.70
2019-06-20T20:23:41.723Z,10.23
2019-06-20T20:26:11.286Z,10.53
2019-06-20T20:28:40.530Z,10.20
2019-06-20T20:31:09.938Z,10.10
2019-06-20T20:33:41.926Z,11.03
2019-06-20T20:36:23.923Z,9.47
2019-06-20T20:38:42.858Z,10.83
2019-06-20T20:41:12.583Z,10.20
2019-06-20T20:43:42.313Z,11.23
2019-06-20T20:46:11.627Z,11.60
2019-06-20T20:48:43.265Z,11.40
2019-06-20T20:51:13.139Z,10.53
2019-06-20T20:53:45.337Z,12.23
2019-06-20T20:56:20.024Z,13.13
2019-06-20T20:58:49.681Z,12.60
2019-06-20T21:01:28.921Z,14.20
2019-06-20T21:03:58.867Z,14.63
2019-06-20T21:06:28.365Z,15.13
2019-06-20T21:08:57.746Z,17.10
2019-06-20T21:11:27.531Z,15.77
2019-06-20T21:13:56.888Z,15.47
2019-06-20T21:16:27.375Z,15.23
2019-06-20T21:18:57.181Z,15.53
2019-06-20T21:21:26.832Z,14.57
2019-06-20T21:23:56.462Z,15.50
2019-06-20T21:26:26.145Z,14.03
2019-06-20T21:28:55.859Z,15.70
2019-06-20T21:31:25.560Z,14.87
2019-06-20T21:33:54.818Z,15.97
2019-06-20T21:36:24.341Z,14.80
2019-06-20T21:38:55.596Z,14.13
2019-06-20T21:41:25.369Z,15.73
2019-06-20T21:43:54.713Z,15.30
2019-06-20T21:46:24.080Z,16.30
2019-06-20T21:48:53.381Z,16.53
2019-06-20T21:51:23.078Z,16.00
2019-06-20T21:53:52.648Z,17.37
2019-06-20T21:56:21.947Z,16.97
2019-06-20T21:58:51.295Z,16.17
2019-06-20T22:01:20.749Z,16.70
2019-06-20T22:03:50.111Z,17.57
2019-06-20T22:06:23.721Z,17.53
2019-06-20T22:08:50.417Z,17.57
2019-06-20T22:11:19.685Z,17.60
2019-06-20T22:13:48.924Z,16.33
2019-06-20T22:16:18.473Z,17.20
2019-06-20T22:18:47.730Z,19.07
2019-06-20T22:21:16.969Z,18.57
2019-06-20T22:23:49.149Z,19.60
2019-06-20T22:26:18.436Z,19.97
2019-06-20T22:28:47.719Z,17.20
2019-06-20T22:31:17.009Z,17.83
2019-06-20T22:33:46.278Z,17.03
2019-06-20T22:36:15.604Z,17.60
2019-06-20T22:38:45.354Z,16.90
2019-06-20T22:41:14.572Z,17.53
2019-06-20T22:43:43.900Z,17.20
2019-06-20T22:46:13.414Z,17.83
2019-06-20T22:48:42.776Z,18.50
2019-06-20T22:51:13.823Z,18.37
2019-06-20T22:53:43.628Z,18.93
2019-06-20T22:56:12.852Z,18.87
2019-06-20T22:58:42.201Z,19.47
2019-06-20T23:01:11.443Z,19.83
2019-06-20T23:03:40.807Z,19.63
2019-06-20T23:06:10.049Z,17.63
2019-06-20T23:08:39.322Z,17.40
2019-06-20T23:11:08.642Z,15.40
2019-06-20T23:13:38.181Z,16.20
2019-06-20T23:16:07.397Z,15.00
2019-06-20T23:18:36.663Z,14.70
2019-06-20T23:21:05.954Z,14.40
2019-06-20T23:23:35.231Z,14.23
2019-06-20T23:26:06.162Z,14.67
2019-06-20T23:28:35.443Z,12.60
2019-06-20T23:31:04.693Z,13.03
2019-06-20T23:33:34.018Z,11.77
2019-06-20T23:36:03.278Z,10.70
2019-06-20T23:38:32.538Z,9.93
2019-06-20T23:41:01.855Z,10.80
2019-06-20T23:43:31.107Z,9.37
2019-06-20T23:46:00.355Z,8.87
2019-06-20T23:48:29.876Z,8.63
2019-06-20T23:50:59.754Z,8.47
2019-06-20T23:53:29.036Z,7.90
2019-06-20T23:55:58.640Z,8.30
2019-06-20T23:58:27.909Z,7.60
